createdAt,value
2018-08-13T00:00:12.243Z,4.20
2018-08-13T00:02:48.143Z,4.40
2018-08-13T00:05:20.272Z,4.63
2018-08-13T00:07:53.411Z,4.97
2018-08-13T00:10:24.811Z,4.40
2018-08-13T00:12:56.242Z,4.67
2018-08-13T00:15:27.924Z,4.70
2018-08-13T00:17:59.596Z,4.53
2018-08-13T00:20:31.193Z,4.90
2018-08-13T00:23:11.538Z,4.70
2018-08-13T00:25:47.148Z,4.37
2018-08-13T00:28:18.657Z,4.77
2018-08-13T00:30:51.454Z,4.53
2018-08-13T00:33:23.145Z,4.47
2018-08-13T00:35:54.845Z,4.13
2018-08-13T00:38:28.465Z,4.93
2018-08-13T00:41:08.330Z,4.63
2018-08-13T00:43:40.377Z,4.50
2018-08-13T00:46:20.542Z,4.63
2018-08-13T00:48:53.122Z,4.60
2018-08-13T00:51:29.202Z,4.50
2018-08-13T00:54:02.372Z,4.43
2018-08-13T00:56:42.249Z,4.83
2018-08-13T00:59:22.603Z,4.90
2018-08-13T01:01:54.585Z,4.70
2018-08-13T01:04:26.237Z,5.83
2018-08-13T01:06:58.383Z,5.77
2018-08-13T01:09:29.861Z,5.93
2018-08-13T01:12:09.722Z,5.57
2018-08-13T01:14:41.682Z,5.63
2018-08-13T01:17:21.831Z,5.40
2018-08-13T01:20:01.967Z,5.60
2018-08-13T01:22:42.786Z,5.23
2018-08-13T01:25:23.567Z,5.70
2018-08-13T01:28:03.199Z,5.10
2018-08-13T01:30:43.365Z,5.70
2018-08-13T01:33:23.081Z,5.20
2018-08-13T01:35:55.034Z,5.37
2018-08-13T01:38:34.884Z,5.53
2018-08-13T01:41:14.625Z,5.60
2018-08-13T01:43:46.566Z,5.50
2018-08-13T01:46:19.015Z,5.50
2018-08-13T01:48:58.839Z,5.13
2018-08-13T01:51:32.699Z,5.23
2018-08-13T01:54:04.660Z,5.40
2018-08-13T01:56:44.608Z,5.10
2018-08-13T01:59:24.571Z,5.80
2018-08-13T02:01:56.603Z,6.27
2018-08-13T02:04:29.152Z,5.60
2018-08-13T02:07:01.111Z,5.80
2018-08-13T02:09:34.221Z,5.57
2018-08-13T02:12:10.471Z,4.73
2018-08-13T02:14:42.402Z,5.00
2018-08-13T02:17:22.458Z,5.30
2018-08-13T02:20:02.879Z,5.07
2018-08-13T02:22:43.037Z,4.83
2018-08-13T02:25:15.866Z,4.93
2018-08-13T02:27:48.016Z,5.33
2018-08-13T02:30:20.216Z,4.77
2018-08-13T02:32:54.006Z,5.03
2018-08-13T02:35:26.460Z,4.90
2018-08-13T02:37:58.379Z,5.00
2018-08-13T02:40:29.889Z,4.90
2018-08-13T02:43:10.454Z,4.83
2018-08-13T02:45:41.464Z,4.80
2018-08-13T02:48:21.462Z,4.73
2018-08-13T02:50:56.492Z,4.53
2018-08-13T02:53:28.673Z,5.60
2018-08-13T02:56:00.962Z,5.60
2018-08-13T02:58:39.492Z,5.00
2018-08-13T03:01:12.246Z,4.90
2018-08-13T03:03:51.949Z,5.40
2018-08-13T03:06:24.060Z,6.23
2018-08-13T03:09:00.260Z,5.03
2018-08-13T03:11:40.250Z,5.57
2018-08-13T03:14:12.494Z,5.27
2018-08-13T03:16:49.464Z,5.60
2018-08-13T03:19:22.695Z,5.13
2018-08-13T03:21:54.516Z,5.60
2018-08-13T03:24:26.916Z,5.20
2018-08-13T03:27:07.364Z,5.57
2018-08-13T03:29:47.146Z,5.57
2018-08-13T03:32:27.043Z,5.40
2018-08-13T03:34:58.992Z,6.10
2018-08-13T03:37:30.932Z,5.77
2018-08-13T03:40:03.177Z,6.00
2018-08-13T03:42:46.156Z,5.70
2018-08-13T03:45:20.073Z,6.07
2018-08-13T03:48:00.007Z,6.60
2018-08-13T03:50:40.229Z,5.77
2018-08-13T03:53:11.901Z,6.00
2018-08-13T03:55:46.142Z,5.60
2018-08-13T03:58:18.070Z,6.00
2018-08-13T04:00:49.989Z,5.50
2018-08-13T04:03:21.989Z,4.93
2018-08-13T04:05:53.599Z,5.10
2018-08-13T04:08:24.829Z,4.97
2018-08-13T04:10:56.219Z,5.23
2018-08-13T04:13:27.880Z,5.33
2018-08-13T04:15:59.569Z,5.80
2018-08-13T04:18:31.090Z,5.03
2018-08-13T04:21:03.131Z,5.13
2018-08-13T04:23:34.963Z,6.33
2018-08-13T04:26:07.829Z,5.90
2018-08-13T04:28:39.729Z,6.33
2018-08-13T04:31:10.840Z,6.33
2018-08-13T04:33:42.372Z,5.97
2018-08-13T04:36:14.009Z,5.93
2018-08-13T04:38:45.739Z,6.50
2018-08-13T04:41:18.099Z,5.80
2018-08-13T04:43:58.113Z,6.40
2018-08-13T04:46:30.323Z,6.40
2018-08-13T04:49:01.233Z,6.23
2018-08-13T04:51:37.733Z,6.10
2018-08-13T04:54:17.830Z,6.97
2018-08-13T04:56:49.931Z,6.13
2018-08-13T04:59:22.271Z,5.97
2018-08-13T05:02:01.931Z,6.53
2018-08-13T05:04:42.128Z,6.50
2018-08-13T05:07:22.226Z,6.70
2018-08-13T05:09:54.192Z,6.20
2018-08-13T05:12:26.151Z,6.20
2018-08-13T05:14:57.710Z,6.70
2018-08-13T05:17:29.391Z,7.00
2018-08-13T05:20:09.602Z,6.87
2018-08-13T05:22:46.161Z,6.60
2018-08-13T05:25:18.871Z,6.07
2018-08-13T05:27:54.839Z,6.70
2018-08-13T05:30:26.875Z,6.37
2018-08-13T05:33:07.077Z,6.50
2018-08-13T05:35:40.307Z,5.90
2018-08-13T05:38:11.941Z,6.40
2018-08-13T05:40:43.036Z,5.90
2018-08-13T05:43:15.827Z,6.07
2018-08-13T05:45:56.096Z,6.20
2018-08-13T05:48:28.078Z,6.47
2018-08-13T05:51:01.187Z,7.07
2018-08-13T05:53:33.096Z,7.00
2018-08-13T05:56:04.707Z,6.27
2018-08-13T05:58:41.034Z,6.97
2018-08-13T06:01:22.058Z,6.90
2018-08-13T06:03:54.218Z,6.40
2018-08-13T06:06:25.969Z,6.70
2018-08-13T06:08:58.469Z,6.50
2018-08-13T06:11:29.928Z,6.67
2018-08-13T06:14:01.773Z,6.70
2018-08-13T06:16:32.828Z,6.73
2018-08-13T06:19:08.537Z,6.80
2018-08-13T06:21:40.228Z,6.00
2018-08-13T06:24:12.190Z,6.17
2018-08-13T06:26:42.729Z,6.70
2018-08-13T06:29:15.037Z,6.90
2018-08-13T06:31:46.957Z,6.60
2018-08-13T06:34:23.488Z,6.27
2018-08-13T06:37:03.558Z,6.20
2018-08-13T06:39:43.849Z,6.73
2018-08-13T06:42:14.758Z,6.40
2018-08-13T06:44:46.281Z,6.00
2018-08-13T06:47:25.050Z,6.97
2018-08-13T06:50:05.115Z,6.53
2018-08-13T06:52:46.047Z,6.40
2018-08-13T06:55:26.212Z,6.87
2018-08-13T06:58:01.960Z,6.80
2018-08-13T07:00:33.711Z,6.13
2018-08-13T07:03:05.812Z,6.40
2018-08-13T07:05:38.010Z,6.07
2018-08-13T07:08:09.701Z,6.10
2018-08-13T07:10:41.651Z,6.47
2018-08-13T07:13:13.071Z,6.67
2018-08-13T07:15:48.239Z,6.30
2018-08-13T07:18:19.961Z,6.37
2018-08-13T07:20:51.591Z,6.00
2018-08-13T07:23:24.484Z,6.27
2018-08-13T07:25:55.700Z,5.77
2018-08-13T07:28:26.900Z,5.60
2018-08-13T07:30:59.005Z,5.83
2018-08-13T07:33:30.687Z,6.00
2018-08-13T07:36:02.491Z,6.00
2018-08-13T07:38:33.780Z,5.90
2018-08-13T07:41:06.280Z,6.10
2018-08-13T07:43:37.367Z,5.93
2018-08-13T07:46:09.950Z,5.97
2018-08-13T07:48:41.191Z,5.50
2018-08-13T07:51:13.669Z,5.80
2018-08-13T07:53:45.410Z,6.00
2018-08-13T07:56:16.661Z,6.03
2018-08-13T07:58:47.841Z,5.90
2018-08-13T08:01:19.160Z,5.90
2018-08-13T08:03:53.030Z,6.10
2018-08-13T08:06:24.615Z,5.77
2018-08-13T08:08:56.190Z,5.77
2018-08-13T08:11:27.562Z,5.47
2018-08-13T08:13:58.761Z,5.67
2018-08-13T08:16:31.321Z,5.60
2018-08-13T08:19:02.801Z,5.93
2018-08-13T08:21:34.760Z,5.97
2018-08-13T08:24:05.832Z,5.67
2018-08-13T08:26:37.100Z,5.43
2018-08-13T08:29:08.933Z,5.60
2018-08-13T08:31:41.271Z,6.40
2018-08-13T08:34:13.231Z,5.60
2018-08-13T08:36:47.500Z,6.03
2018-08-13T08:39:20.147Z,6.00
2018-08-13T08:42:00.763Z,5.83
2018-08-13T08:44:40.639Z,6.03
2018-08-13T08:47:20.636Z,5.90
2018-08-13T08:50:00.536Z,5.63
2018-08-13T08:52:40.585Z,5.40
2018-08-13T08:55:20.655Z,5.87
2018-08-13T08:57:59.929Z,5.83
2018-08-13T09:00:39.457Z,5.57
2018-08-13T09:03:19.392Z,5.57
2018-08-13T09:05:59.453Z,5.60
2018-08-13T09:08:39.081Z,5.40
2018-08-13T09:11:18.634Z,5.60
2018-08-13T09:13:58.253Z,5.27
2018-08-13T09:16:28.928Z,5.30
2018-08-13T09:19:10.772Z,5.07
2018-08-13T09:21:52.689Z,5.37
2018-08-13T09:24:35.199Z,5.03
2018-08-13T09:27:16.636Z,5.30
2018-08-13T09:29:57.474Z,5.50
2018-08-13T09:32:38.334Z,5.50
2018-08-13T09:35:20.049Z,5.33
2018-08-13T09:37:58.416Z,5.37
2018-08-13T09:40:37.481Z,5.20
2018-08-13T09:43:09.768Z,5.20
2018-08-13T09:45:49.360Z,5.37
2018-08-13T09:48:29.447Z,5.17
2018-08-13T09:51:09.378Z,5.00
2018-08-13T09:53:48.515Z,5.27
2018-08-13T09:56:26.162Z,5.43
2018-08-13T09:59:04.338Z,4.93
2018-08-13T10:01:37.659Z,4.77
2018-08-13T10:04:09.658Z,4.90
2018-08-13T10:06:47.935Z,4.87
2018-08-13T10:09:28.175Z,4.97
2018-08-13T10:12:06.937Z,4.83
2018-08-13T10:14:44.575Z,4.80
2018-08-13T10:17:24.475Z,4.87
2018-08-13T10:20:03.972Z,4.63
2018-08-13T10:22:41.152Z,4.77
2018-08-13T10:25:20.872Z,4.87
2018-08-13T10:28:00.942Z,4.53
2018-08-13T10:30:40.460Z,4.70
2018-08-13T10:33:16.678Z,4.90
2018-08-13T10:35:56.426Z,4.70
2018-08-13T10:38:32.176Z,4.10
2018-08-13T10:41:12.360Z,4.10
2018-08-13T10:43:51.797Z,4.10
2018-08-13T10:46:31.668Z,3.80
2018-08-13T10:49:11.789Z,4.00
2018-08-13T10:51:52.014Z,3.70
2018-08-13T10:54:32.060Z,4.17
2018-08-13T10:57:12.239Z,3.17
2018-08-13T10:59:52.600Z,2.50
2018-08-13T11:02:32.295Z,2.30
2018-08-13T11:05:15.883Z,2.30
2018-08-13T11:07:56.960Z,2.30
2018-08-13T11:10:37.421Z,1.90
2018-08-13T11:13:14.789Z,2.00
2018-08-13T11:15:51.072Z,2.27
2018-08-13T11:18:26.957Z,2.20
2018-08-13T11:21:06.636Z,2.73
2018-08-13T11:23:46.081Z,2.53
2018-08-13T11:26:24.307Z,2.83
2018-08-13T11:29:02.457Z,2.70
2018-08-13T11:31:44.432Z,2.87
2018-08-13T11:34:16.672Z,2.90
2018-08-13T11:36:53.099Z,2.60
2018-08-13T11:39:33.208Z,2.20
2018-08-13T11:42:12.915Z,2.30
2018-08-13T11:44:52.910Z,2.43
2018-08-13T11:47:33.163Z,2.40
2018-08-13T11:50:07.543Z,2.47
2018-08-13T11:52:49.303Z,2.30
2018-08-13T11:55:29.816Z,2.23
2018-08-13T11:58:10.060Z,2.50
2018-08-13T12:00:49.933Z,2.30
2018-08-13T12:03:30.029Z,2.27
2018-08-13T12:06:10.433Z,2.33
2018-08-13T12:08:51.033Z,2.33
2018-08-13T12:11:27.845Z,2.10
2018-08-13T12:14:07.975Z,2.50
2018-08-13T12:16:48.078Z,2.40
2018-08-13T12:19:29.258Z,2.50
2018-08-13T12:22:09.107Z,2.50
2018-08-13T12:24:47.635Z,2.30
2018-08-13T12:27:27.736Z,2.60
2018-08-13T12:30:09.372Z,2.40
2018-08-13T12:32:49.935Z,2.63
2018-08-13T12:35:29.566Z,2.50
2018-08-13T12:38:09.212Z,2.60
2018-08-13T12:40:50.410Z,2.50
2018-08-13T12:43:21.471Z,2.43
2018-08-13T12:46:01.269Z,2.70
2018-08-13T12:48:44.167Z,2.70
2018-08-13T12:51:24.202Z,2.67
2018-08-13T12:54:04.310Z,2.77
2018-08-13T12:56:44.563Z,2.80
2018-08-13T12:59:24.453Z,2.80
2018-08-13T13:02:04.118Z,3.00
2018-08-13T13:04:43.611Z,2.30
2018-08-13T13:07:24.038Z,2.37
2018-08-13T13:10:04.100Z,2.20
2018-08-13T13:12:44.450Z,2.07
2018-08-13T13:15:24.709Z,2.20
2018-08-13T13:18:04.676Z,2.17
2018-08-13T13:20:44.265Z,2.40
2018-08-13T13:23:24.334Z,2.30
2018-08-13T13:26:02.663Z,2.20
2018-08-13T13:28:42.635Z,2.30
2018-08-13T13:31:22.716Z,2.00
2018-08-13T13:34:03.279Z,2.20
2018-08-13T13:36:43.340Z,2.27
2018-08-13T13:39:21.828Z,2.00
2018-08-13T13:42:01.651Z,2.10
2018-08-13T13:44:41.072Z,2.30
2018-08-13T13:47:21.210Z,2.20
2018-08-13T13:50:00.897Z,2.30
2018-08-13T13:52:46.514Z,2.50
2018-08-13T13:55:26.889Z,2.20
2018-08-13T13:58:07.051Z,2.30
2018-08-13T14:00:47.425Z,2.37
2018-08-13T14:03:29.082Z,2.20
2018-08-13T14:06:09.827Z,2.40
2018-08-13T14:08:50.554Z,2.30
2018-08-13T14:11:31.746Z,2.20
2018-08-13T14:14:12.580Z,2.40
2018-08-13T14:16:54.224Z,2.30
2018-08-13T14:19:35.914Z,2.63
2018-08-13T14:22:18.464Z,2.40
2018-08-13T14:25:03.238Z,2.37
2018-08-13T14:27:43.149Z,2.40
2018-08-13T14:30:27.589Z,2.10
2018-08-13T14:33:08.273Z,2.33
2018-08-13T14:35:48.637Z,2.50
2018-08-13T14:38:28.836Z,2.10
2018-08-13T14:41:09.278Z,2.10
2018-08-13T14:43:49.886Z,2.37
2018-08-13T14:46:29.601Z,2.27
2018-08-13T14:49:09.997Z,2.40
2018-08-13T14:51:50.452Z,2.13
2018-08-13T14:54:30.271Z,2.33
2018-08-13T14:57:11.445Z,2.50
2018-08-13T14:59:51.510Z,2.10
2018-08-13T15:02:32.523Z,2.60
2018-08-13T15:05:13.465Z,2.47
2018-08-13T15:07:54.046Z,2.50
2018-08-13T15:10:34.484Z,2.40
2018-08-13T15:16:05.923Z,2.80
2018-08-13T15:18:46.706Z,2.70
2018-08-13T15:21:27.038Z,2.40
2018-08-13T15:24:06.977Z,2.43
2018-08-13T15:26:47.237Z,2.20
2018-08-13T15:29:28.079Z,2.30
2018-08-13T15:32:08.315Z,2.50
2018-08-13T15:34:49.308Z,2.67
2018-08-13T15:37:31.154Z,2.40
2018-08-13T15:43:15.615Z,2.03
2018-08-13T15:45:56.089Z,2.37
2018-08-13T15:48:36.874Z,2.40
2018-08-13T15:51:23.204Z,2.40
2018-08-13T15:54:02.865Z,2.30
2018-08-13T15:56:44.067Z,2.60
2018-08-13T15:59:25.381Z,2.20
2018-08-13T16:02:05.998Z,2.10
2018-08-13T16:04:46.184Z,3.10
2018-08-13T16:07:26.321Z,3.37
2018-08-13T16:10:09.361Z,3.40
2018-08-13T16:12:42.950Z,3.23
2018-08-13T16:15:22.842Z,3.30
2018-08-13T16:18:00.019Z,3.87
2018-08-13T16:20:43.647Z,3.23
2018-08-13T16:23:24.451Z,3.80
2018-08-13T16:26:12.396Z,3.20
2018-08-13T16:29:03.085Z,2.70
2018-08-13T16:31:47.775Z,2.60
2018-08-13T16:34:29.827Z,2.30
2018-08-13T16:37:10.661Z,2.13
2018-08-13T16:39:50.588Z,2.00
2018-08-13T16:42:33.698Z,1.90
2018-08-13T16:45:15.686Z,16.57
2018-08-13T16:47:58.046Z,1.70
2018-08-13T16:50:40.450Z,1.50
2018-08-13T16:59:25.044Z,4.93
2018-08-13T17:02:28.139Z,11.07
2018-08-13T17:05:14.328Z,2.93
2018-08-13T17:08:03.274Z,1.53
2018-08-13T17:10:51.313Z,1.27
2018-08-13T17:13:34.449Z,1.40
2018-08-13T17:16:20.508Z,1.40
2018-08-13T17:19:05.514Z,1.17
2018-08-13T17:21:49.954Z,1.20
2018-08-13T17:24:33.385Z,1.07
2018-08-13T17:27:14.620Z,1.37
2018-08-13T17:29:56.739Z,1.23
2018-08-13T17:32:37.817Z,1.10
2018-08-13T17:35:18.541Z,1.07
2018-08-13T17:37:58.948Z,1.40
2018-08-13T17:40:38.949Z,1.20
2018-08-13T17:43:19.206Z,1.30
2018-08-13T17:45:59.448Z,1.70
2018-08-13T17:48:39.412Z,1.60
2018-08-13T17:51:18.723Z,1.50
2018-08-13T17:53:58.837Z,1.50
2018-08-13T17:56:38.720Z,1.90
2018-08-13T17:59:15.203Z,1.70
2018-08-13T18:01:51.441Z,1.80
2018-08-13T18:04:29.162Z,1.60
2018-08-13T18:07:05.604Z,1.90
2018-08-13T18:09:45.313Z,1.70
2018-08-13T18:12:26.384Z,2.13
2018-08-13T18:15:07.478Z,2.00
2018-08-13T18:17:47.865Z,2.13
2018-08-13T18:20:25.037Z,1.70
2018-08-13T18:23:05.218Z,2.13
2018-08-13T18:25:45.630Z,1.80
2018-08-13T18:28:22.978Z,2.10
2018-08-13T18:31:01.416Z,2.37
2018-08-13T18:33:40.359Z,1.90
2018-08-13T18:36:16.284Z,2.17
2018-08-13T18:38:56.090Z,2.13
2018-08-13T18:41:32.878Z,2.50
2018-08-13T18:44:07.258Z,2.27
2018-08-13T18:46:48.402Z,2.40
2018-08-13T18:49:28.151Z,2.43
2018-08-13T18:52:08.039Z,2.27
2018-08-13T18:54:47.646Z,2.50
2018-08-13T18:57:27.482Z,2.20
2018-08-13T19:00:09.518Z,2.70
2018-08-13T19:02:50.220Z,2.97
2018-08-13T19:05:29.987Z,2.83
2018-08-13T19:08:09.542Z,2.73
2018-08-13T19:10:50.378Z,3.27
2018-08-13T19:13:30.005Z,3.33
2018-08-13T19:16:02.036Z,3.23
2018-08-13T19:18:39.605Z,3.90
2018-08-13T19:21:19.371Z,3.30
2018-08-13T19:23:59.133Z,3.60
2018-08-13T19:26:39.255Z,3.30
2018-08-13T19:29:19.519Z,3.57
2018-08-13T19:31:59.463Z,3.67
2018-08-13T19:34:39.777Z,3.73
2018-08-13T19:37:19.675Z,3.70
2018-08-13T19:39:59.208Z,3.70
2018-08-13T19:42:39.045Z,3.60
2018-08-13T19:45:19.682Z,3.53
2018-08-13T19:47:59.229Z,3.33
2018-08-13T19:50:39.220Z,3.37
2018-08-13T19:53:18.614Z,3.47
2018-08-13T19:55:58.892Z,3.73
2018-08-13T19:58:38.681Z,4.50
2018-08-13T20:01:18.495Z,4.30
2018-08-13T20:03:58.005Z,4.63
2018-08-13T20:06:37.816Z,4.53
2018-08-13T20:09:18.109Z,4.90
2018-08-13T20:11:57.646Z,4.20
2018-08-13T20:14:38.267Z,4.53
2018-08-13T20:17:18.585Z,4.37
2018-08-13T20:19:58.627Z,4.70
2018-08-13T20:22:39.190Z,4.90
2018-08-13T20:25:19.792Z,4.30
2018-08-13T20:27:59.972Z,4.50
2018-08-13T20:30:37.433Z,4.40
2018-08-13T20:33:17.454Z,4.10
2018-08-13T20:35:56.803Z,4.37
2018-08-13T20:38:36.051Z,4.10
2018-08-13T20:41:15.703Z,4.37
2018-08-13T20:43:55.875Z,4.40
2018-08-13T20:46:36.405Z,3.80
2018-08-13T20:49:16.012Z,3.83
2018-08-13T20:51:56.516Z,3.97
2018-08-13T20:54:37.052Z,4.30
2018-08-13T20:57:17.261Z,4.83
2018-08-13T20:59:57.546Z,4.70
2018-08-13T21:02:37.604Z,4.83
2018-08-13T21:05:17.653Z,4.60
2018-08-13T21:07:57.509Z,4.57
2018-08-13T21:10:37.946Z,4.57
2018-08-13T21:13:09.877Z,4.37
2018-08-13T21:15:43.557Z,4.20
2018-08-13T21:18:14.027Z,3.73
2018-08-13T21:20:46.067Z,4.33
2018-08-13T21:23:16.907Z,4.47
2018-08-13T21:25:51.017Z,4.37
2018-08-13T21:28:26.539Z,4.40
2018-08-13T21:30:57.899Z,5.50
2018-08-13T21:33:29.497Z,5.20
2018-08-13T21:36:00.197Z,5.07
2018-08-13T21:38:32.037Z,4.57
2018-08-13T21:41:03.467Z,5.30
2018-08-13T21:43:34.328Z,4.73
2018-08-13T21:46:04.688Z,5.17
2018-08-13T21:48:35.797Z,4.27
2018-08-13T21:51:07.061Z,4.33
2018-08-13T21:53:40.088Z,4.17
2018-08-13T21:56:12.518Z,4.30
2018-08-13T21:58:44.738Z,4.10
2018-08-13T22:01:48.068Z,3.93
2018-08-13T22:04:19.702Z,4.00
2018-08-13T22:06:51.937Z,4.03
2018-08-13T22:09:23.937Z,4.10
2018-08-13T22:11:55.527Z,4.73
2018-08-13T22:14:27.588Z,4.50
2018-08-13T22:16:59.567Z,4.73
2018-08-13T22:19:30.877Z,4.97
2018-08-13T22:22:02.618Z,5.27
2018-08-13T22:24:45.237Z,5.13
2018-08-13T22:27:25.031Z,5.07
2018-08-13T22:30:04.735Z,5.00
2018-08-13T22:32:36.804Z,5.00
2018-08-13T22:35:09.235Z,4.70
2018-08-13T22:37:48.676Z,4.40
2018-08-13T22:40:29.116Z,4.40
2018-08-13T22:43:08.965Z,4.40
2018-08-13T22:45:39.893Z,4.00
2018-08-13T22:48:12.487Z,4.20
2018-08-13T22:50:44.447Z,4.80
2018-08-13T22:53:24.010Z,3.97
2018-08-13T22:56:03.931Z,4.13
2018-08-13T22:58:43.298Z,3.50
2018-08-13T23:01:23.436Z,3.80
2018-08-13T23:04:03.164Z,3.87
2018-08-13T23:06:41.743Z,3.80
2018-08-13T23:09:13.834Z,3.40
2018-08-13T23:11:47.212Z,3.60
2018-08-13T23:14:27.098Z,3.20
2018-08-13T23:17:08.633Z,3.17
2018-08-13T23:19:41.315Z,3.60
2018-08-13T23:22:51.147Z,3.00
2018-08-13T23:25:22.999Z,3.10
2018-08-13T23:27:55.635Z,3.20
2018-08-13T23:30:35.923Z,3.13
2018-08-13T23:33:07.286Z,3.30
2018-08-13T23:35:47.138Z,3.10
2018-08-13T23:38:23.668Z,3.20
2018-08-13T23:40:55.152Z,3.50
2018-08-13T23:43:34.748Z,3.30
2018-08-13T23:46:14.343Z,3.23
2018-08-13T23:48:46.184Z,3.63
2018-08-13T23:51:17.905Z,3.50
2018-08-13T23:53:50.893Z,3.10
2018-08-13T23:56:31.053Z,3.27
2018-08-13T23:59:10.804Z,3.40
